CDT,Max TemperatureF,Mean TemperatureF,Min TemperatureF,Max Dew PointF,MeanDew PointF,Min DewpointF,Max Humidity, Mean Humidity, Min Humidity, Max Sea Level PressureIn, Mean Sea Level PressureIn, Min Sea Level PressureIn, Max VisibilityMiles, Mean VisibilityMiles, Min VisibilityMiles, Max Wind SpeedMPH, Mean Wind SpeedMPH, Max Gust SpeedMPH,PrecipitationIn, CloudCover, Events, WindDirDegrees
2012-10-1,69,56,42,48,42,37,87,63,37,29.95,29.88,29.83,10,10,4,8,3,,0.00,0,,53
2012-10-2,75,58,41,46,41,37,87,57,29,29.93,29.88,29.84,10,10,8,12,4,16,0.00,0,,46
2012-10-3,69,57,46,54,48,39,93,74,49,30.02,29.96,29.91,10,9,4,9,3,,0.00,4,,93
2012-10-4,75,58,44,54,46,34,93,72,47,30.17,30.07,30.01,10,10,5,23,6,29,0.01,2,,252
2012-10-5,50,42,33,34,28,21,75,56,34,30.21,30.16,30.12,10,10,10,20,10,25,0.00,3,,280
2012-10-6,48,38,28,28,25,21,80,58,43,30.22,30.18,30.12,10,10,10,17,10,23,0.00,4,,295
2012-10-7,53,44,33,28,23,18,70,47,26,30.22,30.18,30.12,10,10,10,15,6,22,0.00,4,,284
2012-10-8,62,46,30,32,27,19,70,47,27,30.13,30.05,29.96,10,10,8,20,4,28,0.00,0,,209
2012-10-9,68,55,42,43,37,32,93,59,37,29.96,29.90,29.81,10,10,10,23,8,33,0.24,3,,243
2012-10-10,55,44,32,37,30,27,87,64,35,30.18,30.11,29.96,10,10,10,22,11,30,0.00,1,,275
2012-10-11,71,50,30,41,34,25,86,55,28,30.29,30.13,30.05,10,10,10,18,6,26,0.03,2,,267
2012-10-12,57,45,33,41,29,25,81,53,31,30.46,30.35,30.23,10,10,10,16,8,18,0.00,2,,78
2012-10-13,66,55,44,63,49,30,94,81,53,30.23,29.97,29.76,10,8,3,10,6,16,0.37,8,Thunderstorm,170
2012-10-14,66,55,44,61,54,39,94,85,59,29.85,29.63,29.42,10,9,3,30,7,39,0.87,7,,253
2012-10-15,62,50,39,43,39,36,87,70,42,29.98,29.93,29.85,10,10,10,13,8,,0.00,0,,284
2012-10-16,73,56,39,54,47,36,93,68,49,29.94,29.69,29.50,10,10,10,17,7,24,0.00,0,,151
2012-10-17,69,60,50,57,50,45,94,73,53,29.52,29.43,29.33,10,9,4,25,6,38,0.68,4,,211
2012-10-18,50,47,44,43,39,36,87,76,58,29.45,29.40,29.37,10,10,9,24,12,31,0.09,7,,236
2012-10-19,53,47,41,45,41,37,93,81,58,29.69,29.53,29.40,10,9,1,14,4,20,0.01,6,,290
2012-10-20,57,47,37,45,38,34,93,82,51,29.94,29.83,29.70,10,6,0,12,6,,0.00,3,,257
2012-10-21,71,52,35,54,45,34,100,77,52,29.99,29.94,29.90,10,9,3,13,5,17,0.00,0,,119
2012-10-22,66,58,51,63,57,48,100,91,82,29.94,29.90,29.86,10,7,1,9,4,18,0.11,7,Thunderstorm,107
2012-10-23,75,67,59,66,62,57,100,88,69,29.91,29.87,29.82,10,7,1,12,6,16,0.03,7,,144
2012-10-24,80,71,62,66,63,59,94,77,61,29.91,29.85,29.79,10,10,10,13,6,20,0.00,3,,175
2012-10-25,73,58,42,63,53,32,88,78,66,30.12,29.80,29.65,10,10,7,24,11,32,0.13,6,Thunderstorm,225
2012-10-26,50,42,33,30,28,27,81,58,43,30.36,30.30,30.15,10,10,10,16,11,24,0.00,1,,329
2012-10-27,48,37,28,27,25,23,80,61,43,30.37,30.32,30.27,10,10,10,13,7,20,0.00,0,,2
2012-10-28,51,42,32,34,26,21,70,58,44,30.32,30.30,30.27,10,10,10,15,7,20,0.00,3,,21
2012-10-29,53,42,30,30,24,21,80,56,30,30.34,30.27,30.14,10,10,10,14,7,18,0.00,0,,4
2012-10-30,51,43,35,27,24,21,65,51,34,30.13,29.96,29.87,10,10,10,23,14,31,0.00,0,,339
2012-10-31,51,40,30,28,22,16,69,53,28,29.92,29.90,29.87,10,10,10,16,11,29,0.00,0,,313